Time;durP1;ratioP1;P1;durP2;ratioP2;P2;SDS_P1;SDS_P2;PMS_P1;PMS_P2;Temp;Humidity;BMP_temperature;BMP_pressure;BME280_temperature;BME280_humidity;BME280_pressure;Samples;Min_cycle;Max_cycle;Signal;HPM_P1;HPM_P2
2022/10/06 00:00:00;;;;;;;2.75;2.10;;;;;;;;;;5030724;28;20049;-69
2022/10/06 00:02:27;;;;;;;2.28;1.88;;;;;;;;;;5032019;28;20045;-70
2022/10/06 00:04:54;;;;;;;7.30;1.80;;;;;;;;;;5031987;28;20081;-69
2022/10/06 00:07:20;;;;;;;5.65;2.08;;;;;;;;;;5030614;28;20076;-69
2022/10/06 00:09:47;;;;;;;2.63;1.80;;;;;;;;;;5031336;28;20064;-69
2022/10/06 00:12:13;;;;;;;4.85;2.10;;;;;;;;;;5031677;28;20522;-69
2022/10/06 00:14:40;;;;;;;4.78;2.03;;;;;;;;;;5031631;28;20049;-70
2022/10/06 00:17:07;;;;;;;2.22;1.67;;;;;;;;;;5031452;28;20081;-69
2022/10/06 00:19:33;;;;;;;6.82;1.92;;;;;;;;;;5030182;28;20053;-67
2022/10/06 00:22:00;;;;;;;3.03;1.95;;;;;;;;;;5031662;28;20085;-69
2022/10/06 00:24:27;;;;;;;4.22;1.85;;;;;;;;;;5031623;28;20092;-69
2022/10/06 00:26:53;;;;;;;4.75;2.10;;;;;;;;;;5034193;28;20393;-70
2022/10/06 00:29:20;;;;;;;2.55;1.88;;;;;;;;;;5035276;28;20088;-68
2022/10/06 00:31:47;;;;;;;2.22;1.67;;;;;;;;;;5035541;28;20461;-70
2022/10/06 00:34:13;;;;;;;6.20;2.10;;;;;;;;;;5034509;28;20392;-70
2022/10/06 00:36:40;;;;;;;2.97;2.00;;;;;;;;;;5035499;28;20143;-69
2022/10/06 00:39:06;;;;;;;4.15;2.08;;;;;;;;;;5035340;28;20472;-69
2022/10/06 00:41:33;;;;;;;2.30;1.80;;;;;;;;;;5035233;28;20506;-70
2022/10/06 00:44:00;;;;;;;6.03;2.05;;;;;;;;;;5035287;28;20517;-69
2022/10/06 00:46:37;;;;;;;4.13;2.08;;;;;;;;;;5035397;28;20080;-70
2022/10/06 00:49:27;;;;;;;2.03;1.83;;;;;;;;;;5033674;28;20045;-70
2022/10/06 00:52:03;;;;;;;1.90;1.70;;;;;;;;;;5034972;28;20488;-70
2022/10/06 00:54:30;;;;;;;5.85;2.20;;;;;;;;;;5035358;28;20241;-70
2022/10/06 00:56:57;;;;;;;3.90;1.95;;;;;;;;;;5034042;28;20498;-69
2022/10/06 00:59:23;;;;;;;4.90;1.83;;;;;;;;;;5017085;28;20103;-70
2022/10/06 01:01:54;;;;;;;3.00;1.80;;;;;;;;;;5035082;28;20480;-70
2022/10/06 01:04:21;;;;;;;3.85;3.00;;;;;;;;;;5033663;28;20080;-69
2022/10/06 01:06:53;;;;;;;2.65;2.10;;;;;;;;;;5033437;28;20203;-70
2022/10/06 01:09:20;;;;;;;5.18;2.00;;;;;;;;;;5033396;28;20072;-69
2022/10/06 01:11:48;;;;;;;3.55;1.98;;;;;;;;;;5033762;28;20124;-67
2022/10/06 01:14:16;;;;;;;3.30;1.80;;;;;;;;;;5033565;28;20080;-66
2022/10/06 01:16:43;;;;;;;3.08;1.90;;;;;;;;;;5017155;28;20123;-67
2022/10/06 01:19:20;;;;;;;2.75;1.92;;;;;;;;;;5033070;28;20085;-67
2022/10/06 01:21:47;;;;;;;6.47;2.22;;;;;;;;;;5033442;28;20041;-68
2022/10/06 01:24:15;;;;;;;2.58;2.08;;;;;;;;;;5033252;28;20504;-66
2022/10/06 01:26:42;;;;;;;3.25;2.28;;;;;;;;;;5017069;28;20080;-67
2022/10/06 01:29:09;;;;;;;3.50;2.28;;;;;;;;;;5032991;28;20049;-67
2022/10/06 01:31:35;;;;;;;2.20;1.98;;;;;;;;;;5016630;28;20045;-67
2022/10/06 01:34:02;;;;;;;3.25;2.17;;;;;;;;;;5034287;28;20498;-70
2022/10/06 01:36:29;;;;;;;2.17;1.60;;;;;;;;;;5033098;28;20500;-69
2022/10/06 01:38:55;;;;;;;2.35;1.80;;;;;;;;;;5033139;28;20153;-70
2022/10/06 01:41:23;;;;;;;2.17;1.95;;;;;;;;;;5034459;28;20041;-69
2022/10/06 01:43:50;;;;;;;3.25;1.85;;;;;;;;;;5034331;28;20467;-69
2022/10/06 01:46:16;;;;;;;4.43;2.10;;;;;;;;;;5034141;28;20119;-69
2022/10/06 01:48:43;;;;;;;5.15;2.15;;;;;;;;;;5035069;28;20080;-70
2022/10/06 01:51:14;;;;;;;4.57;2.95;;;;;;;;;;5050495;28;20046;-67
2022/10/06 01:53:41;;;;;;;3.67;1.90;;;;;;;;;;5036327;28;20103;-70
2022/10/06 01:56:08;;;;;;;5.13;2.30;;;;;;;;;;5034052;28;20077;-67
2022/10/06 01:58:34;;;;;;;2.35;2.00;;;;;;;;;;5033789;28;20136;-69
2022/10/06 02:01:08;;;;;;;5.05;2.20;;;;;;;;;;5033767;28;20073;-69
2022/10/06 02:03:36;;;;;;;3.15;2.25;;;;;;;;;;5032806;28;20136;-69
2022/10/06 02:06:03;;;;;;;8.73;2.35;;;;;;;;;;5034023;28;20061;-70
2022/10/06 02:08:29;;;;;;;4.07;2.25;;;;;;;;;;5032455;28;20045;-70
2022/10/06 02:10:57;;;;;;;3.60;2.30;;;;;;;;;;5033642;28;20053;-70
2022/10/06 02:13:25;;;;;;;3.33;2.47;;;;;;;;;;5033470;28;20100;-69
2022/10/06 02:15:56;;;;;;;3.72;2.63;;;;;;;;;;5034217;28;20053;-65
2022/10/06 02:18:23;;;;;;;2.90;2.53;;;;;;;;;;5033406;28;20099;-67
2022/10/06 02:20:50;;;;;;;3.47;2.40;;;;;;;;;;5033497;28;20389;-65
2022/10/06 02:23:17;;;;;;;5.53;2.60;;;;;;;;;;5033490;28;20136;-67
2022/10/06 02:25:43;;;;;;;7.57;2.83;;;;;;;;;;5033303;28;20136;-65
2022/10/06 02:28:10;;;;;;;4.15;2.40;;;;;;;;;;5033230;28;20104;-65
2022/10/06 02:30:36;;;;;;;4.13;2.65;;;;;;;;;;5033337;28;20107;-65
2022/10/06 02:33:03;;;;;;;4.35;2.35;;;;;;;;;;5033293;28;20504;-65
2022/10/06 02:35:30;;;;;;;4.97;3.00;;;;;;;;;;5033263;28;20085;-65
2022/10/06 02:37:56;;;;;;;3.35;2.83;;;;;;;;;;5033430;28;20136;-65
2022/10/06 02:40:23;;;;;;;4.85;3.00;;;;;;;;;;5032871;28;20532;-65
2022/10/06 02:42:49;;;;;;;4.43;2.75;;;;;;;;;;5033067;28;20045;-65
2022/10/06 02:45:16;;;;;;;4.85;2.92;;;;;;;;;;5032857;28;20080;-65
2022/10/06 02:47:43;;;;;;;6.57;2.92;;;;;;;;;;5032983;28;20093;-65
2022/10/06 02:50:09;;;;;;;4.75;2.85;;;;;;;;;;5032714;28;20490;-68
2022/10/06 02:52:37;;;;;;;5.18;3.45;;;;;;;;;;5032935;28;20519;-65
2022/10/06 02:55:04;;;;;;;3.45;2.95;;;;;;;;;;5032501;28;20057;-68
2022/10/06 02:57:31;;;;;;;7.90;3.28;;;;;;;;;;5032746;28;20373;-65
2022/10/06 02:59:58;;;;;;;5.57;3.25;;;;;;;;;;5032663;28;20473;-66
2022/10/06 03:02:24;;;;;;;6.78;2.80;;;;;;;;;;5032984;28;20041;-67
2022/10/06 03:04:51;;;;;;;6.75;3.13;;;;;;;;;;5032651;28;20050;-67
2022/10/06 03:07:18;;;;;;;5.60;3.35;;;;;;;;;;5032837;28;20425;-68
2022/10/06 03:09:44;;;;;;;8.23;3.38;;;;;;;;;;5032422;28;20057;-66
2022/10/06 03:12:11;;;;;;;4.70;3.13;;;;;;;;;;5032384;28;20132;-66
2022/10/06 03:14:37;;;;;;;5.57;2.90;;;;;;;;;;5032911;28;20455;-67
2022/10/06 03:17:04;;;;;;;4.78;3.28;;;;;;;;;;5031170;28;20049;-67
2022/10/06 03:19:31;;;;;;;4.45;3.03;;;;;;;;;;5031983;28;20676;-66
2022/10/06 03:21:58;;;;;;;2.88;2.35;;;;;;;;;;5032338;28;20389;-66
2022/10/06 03:24:24;;;;;;;4.30;2.70;;;;;;;;;;5032501;28;20053;-67
2022/10/06 03:26:51;;;;;;;6.40;2.67;;;;;;;;;;5032175;28;20574;-65
2022/10/06 03:29:17;;;;;;;4.32;3.05;;;;;;;;;;5032099;28;20095;-65
2022/10/06 03:31:44;;;;;;;2.72;2.35;;;;;;;;;;5030900;28;20535;-70
2022/10/06 03:34:13;;;;;;;3.25;2.58;;;;;;;;;;5032277;28;20455;-67
2022/10/06 03:36:40;;;;;;;4.10;2.97;;;;;;;;;;5032054;28;20492;-66
2022/10/06 03:39:07;;;;;;;2.40;2.10;;;;;;;;;;5031987;28;20077;-66
2022/10/06 03:41:35;;;;;;;3.47;2.33;;;;;;;;;;5031957;28;20077;-67
2022/10/06 03:44:02;;;;;;;4.40;2.63;;;;;;;;;;5032183;28;20053;-66
2022/10/06 03:46:30;;;;;;;8.82;3.13;;;;;;;;;;5032059;28;20480;-67
2022/10/06 03:48:57;;;;;;;5.20;3.03;;;;;;;;;;5031856;28;20103;-67
2022/10/06 03:51:29;;;;;;;4.50;3.33;;;;;;;;;;5031784;28;20132;-65
2022/10/06 03:53:57;;;;;;;6.13;3.40;;;;;;;;;;5031014;28;20104;-65
2022/10/06 03:56:27;;;;;;;5.45;3.30;;;;;;;;;;5030534;28;20057;-66
2022/10/06 03:58:55;;;;;;;6.70;3.53;;;;;;;;;;5029889;28;20049;-65
2022/10/06 04:01:33;;;;;;;6.50;3.53;;;;;;;;;;5031195;28;20128;-65
2022/10/06 04:04:01;;;;;;;9.80;3.60;;;;;;;;;;5031363;28;20522;-65
2022/10/06 04:06:29;;;;;;;3.55;2.92;;;;;;;;;;5031200;28;20077;-67
2022/10/06 04:08:55;;;;;;;4.03;2.88;;;;;;;;;;5031709;28;20077;-67
2022/10/06 04:11:23;;;;;;;7.15;3.13;;;;;;;;;;5031496;28;20092;-65
2022/10/06 04:13:52;;;;;;;3.85;3.17;;;;;;;;;;5030730;28;20054;-65
2022/10/06 04:16:22;;;;;;;3.60;3.00;;;;;;;;;;5031432;28;20107;-65
2022/10/06 04:18:50;;;;;;;7.82;2.75;;;;;;;;;;5031391;28;20488;-65
2022/10/06 04:21:17;;;;;;;4.55;2.90;;;;;;;;;;5031891;28;20127;-65
2022/10/06 04:23:44;;;;;;;5.28;2.70;;;;;;;;;;5032229;28;20050;-67
2022/10/06 04:26:13;;;;;;;5.50;3.10;;;;;;;;;;5031504;28;20095;-66
2022/10/06 04:28:42;;;;;;;3.83;2.65;;;;;;;;;;5031412;28;20081;-67
2022/10/06 04:31:14;;;;;;;3.92;3.03;;;;;;;;;;5032290;28;20046;-65
2022/10/06 04:33:42;;;;;;;4.85;2.92;;;;;;;;;;5031597;28;20049;-65
2022/10/06 04:36:11;;;;;;;9.25;2.85;;;;;;;;;;5031585;28;20056;-66
2022/10/06 04:38:38;;;;;;;5.10;3.25;;;;;;;;;;5014278;28;20096;-65
2022/10/06 04:41:13;;;;;;;6.22;3.60;;;;;;;;;;5031531;28;20096;-64
2022/10/06 04:43:43;;;;;;;5.70;3.30;;;;;;;;;;5026596;28;20061;-69
2022/10/06 04:46:19;;;;;;;7.15;3.30;;;;;;;;;;5010738;28;20057;-67
2022/10/06 04:49:05;;;;;;;8.65;3.33;;;;;;;;;;5011338;28;20600;-66
2022/10/06 04:51:32;;;;;;;6.75;3.85;;;;;;;;;;5011615;28;20046;-66
2022/10/06 04:53:59;;;;;;;5.30;2.90;;;;;;;;;;5018388;28;20076;-67
2022/10/06 04:56:28;;;;;;;4.75;2.95;;;;;;;;;;5020606;28;20112;-65
2022/10/06 04:58:55;;;;;;;11.15;3.30;;;;;;;;;;5016682;28;20053;-67
2022/10/06 05:01:24;;;;;;;5.28;2.63;;;;;;;;;;5011793;28;20108;-64
2022/10/06 05:03:52;;;;;;;4.93;3.15;;;;;;;;;;5011760;28;20046;-65
2022/10/06 05:06:22;;;;;;;4.72;2.90;;;;;;;;;;5011615;28;20054;-65
2022/10/06 05:08:56;;;;;;;6.30;3.60;;;;;;;;;;5012001;28;20053;-64
2022/10/06 05:11:23;;;;;;;4.75;3.10;;;;;;;;;;5011774;28;20045;-68
2022/10/06 05:13:53;;;;;;;5.38;2.90;;;;;;;;;;5013960;28;20108;-66
2022/10/06 05:16:21;;;;;;;7.28;3.83;;;;;;;;;;5027176;28;20054;-66
2022/10/06 05:18:47;;;;;;;6.75;3.00;;;;;;;;;;5034409;28;20092;-66
2022/10/06 05:21:28;;;;;;;5.32;2.90;;;;;;;;;;5034083;28;20045;-66
2022/10/06 05:23:55;;;;;;;7.68;3.25;;;;;;;;;;5014776;28;20045;-66
2022/10/06 05:26:23;;;;;;;3.85;2.90;;;;;;;;;;5017583;28;20073;-64
2022/10/06 05:28:49;;;;;;;4.30;3.00;;;;;;;;;;5014730;28;20137;-67
2022/10/06 05:31:19;;;;;;;6.70;3.00;;;;;;;;;;5014663;28;20045;-67
2022/10/06 05:33:46;;;;;;;6.55;3.22;;;;;;;;;;5014921;28;20449;-66
2022/10/06 05:36:15;;;;;;;5.68;2.97;;;;;;;;;;5017707;28;20475;-66
2022/10/06 05:38:42;;;;;;;6.63;3.25;;;;;;;;;;5034204;28;20088;-66
2022/10/06 05:41:09;;;;;;;6.85;3.13;;;;;;;;;;5034395;28;20091;-65
2022/10/06 05:43:36;;;;;;;4.00;2.85;;;;;;;;;;5034853;28;20143;-66
2022/10/06 05:46:05;;;;;;;4.78;3.55;;;;;;;;;;5034349;28;20511;-66
2022/10/06 05:48:32;;;;;;;5.30;3.13;;;;;;;;;;5034163;28;20132;-67
2022/10/06 05:51:06;;;;;;;8.48;3.50;;;;;;;;;;5034048;28;20570;-66
2022/10/06 05:53:34;;;;;;;5.47;3.67;;;;;;;;;;5034110;28;20053;-66
2022/10/06 05:56:16;;;;;;;7.57;4.05;;;;;;;;;;5034040;28;20049;-66
2022/10/06 05:58:44;;;;;;;6.68;3.40;;;;;;;;;;5018983;28;20441;-64
2022/10/06 06:01:15;;;;;;;7.97;3.83;;;;;;;;;;5031893;28;20477;-65
2022/10/06 06:03:46;;;;;;;7.18;3.70;;;;;;;;;;5031887;28;20081;-66
2022/10/06 06:06:23;;;;;;;5.25;2.95;;;;;;;;;;5031999;28;20088;-66
2022/10/06 06:08:59;;;;;;;6.43;3.45;;;;;;;;;;5031570;28;20073;-65
2022/10/06 06:11:27;;;;;;;7.50;3.92;;;;;;;;;;5031446;28;20057;-65
2022/10/06 06:14:04;;;;;;;6.53;3.60;;;;;;;;;;5032439;28;20061;-65
2022/10/06 06:16:31;;;;;;;8.00;3.47;;;;;;;;;;5031665;28;20045;-65
2022/10/06 06:18:59;;;;;;;8.98;3.78;;;;;;;;;;5032139;28;20053;-65
2022/10/06 06:21:26;;;;;;;5.25;3.67;;;;;;;;;;5031758;28;20045;-64
2022/10/06 06:23:53;;;;;;;7.20;3.45;;;;;;;;;;5031570;28;20507;-65
2022/10/06 06:26:22;;;;;;;8.10;4.05;;;;;;;;;;5031417;28;20103;-65
2022/10/06 06:28:50;;;;;;;7.22;3.50;;;;;;;;;;5031682;28;20089;-67
2022/10/06 06:31:20;;;;;;;7.75;4.07;;;;;;;;;;5031828;28;20053;-64
2022/10/06 06:33:47;;;;;;;4.72;3.22;;;;;;;;;;5030469;28;20045;-65
2022/10/06 06:36:18;;;;;;;6.30;3.45;;;;;;;;;;5031641;28;20111;-64
2022/10/06 06:38:48;;;;;;;6.40;3.45;;;;;;;;;;5031240;28;20057;-67
2022/10/06 06:41:29;;;;;;;7.75;3.95;;;;;;;;;;5031181;28;20089;-66
2022/10/06 06:43:58;;;;;;;13.52;4.50;;;;;;;;;;5031077;28;20562;-64
2022/10/06 06:46:26;;;;;;;11.13;3.75;;;;;;;;;;5033601;28;20057;-67
2022/10/06 06:48:54;;;;;;;10.18;3.85;;;;;;;;;;5030919;28;20470;-66
2022/10/06 06:51:22;;;;;;;7.05;3.80;;;;;;;;;;5030267;28;20046;-68
2022/10/06 06:53:50;;;;;;;10.60;4.43;;;;;;;;;;5030740;28;20053;-67
2022/10/06 06:56:17;;;;;;;8.70;5.30;;;;;;;;;;5017081;28;20100;-66
2022/10/06 06:58:47;;;;;;;8.48;4.63;;;;;;;;;;5010900;28;20505;-66
2022/10/06 07:01:19;;;;;;;10.23;4.75;;;;;;;;;;5012012;28;20090;-66
2022/10/06 07:03:53;;;;;;;7.53;4.65;;;;;;;;;;5011618;28;20093;-64
2022/10/06 07:06:27;;;;;;;6.95;4.18;;;;;;;;;;5013902;28;20060;-65
2022/10/06 07:08:55;;;;;;;5.85;4.30;;;;;;;;;;5022488;28;20057;-66
2022/10/06 07:11:30;;;;;;;8.73;3.92;;;;;;;;;;5018551;28;20050;-65
2022/10/06 07:14:01;;;;;;;7.25;3.78;;;;;;;;;;5019734;28;20046;-65
2022/10/06 07:25:06;;;;;;;10.85;4.30;;;;;;;;;;5020956;28;20077;-66
2022/10/06 07:27:46;;;;;;;9.48;4.05;;;;;;;;;;5017110;28;20128;-66
2022/10/06 07:30:20;;;;;;;11.05;4.93;;;;;;;;;;5024298;28;20963;-65
2022/10/06 07:32:49;;;;;;;5.93;3.85;;;;;;;;;;5022997;28;20081;-66
2022/10/06 07:35:19;;;;;;;9.02;3.42;;;;;;;;;;5020693;28;20104;-69
2022/10/06 07:37:47;;;;;;;5.63;3.47;;;;;;;;;;5017843;28;20111;-68
2022/10/06 07:40:13;;;;;;;5.95;3.00;;;;;;;;;;5022567;28;20203;-70
2022/10/06 07:42:52;;;;;;;8.00;2.80;;;;;;;;;;5017562;28;20054;-70
2022/10/06 07:45:37;;;;;;;7.30;2.58;;;;;;;;;;5020622;28;20046;-71
2022/10/06 07:48:05;;;;;;;7.97;2.92;;;;;;;;;;5014843;28;20049;-71
2022/10/06 07:50:32;;;;;;;8.32;3.00;;;;;;;;;;5018061;28;20093;-71
2022/10/06 07:53:06;;;;;;;8.93;3.15;;;;;;;;;;5018178;28;20161;-70
2022/10/06 07:55:38;;;;;;;6.13;2.95;;;;;;;;;;5016995;28;20112;-71
2022/10/06 07:58:15;;;;;;;3.00;2.50;;;;;;;;;;5020001;28;20060;-73
2022/10/06 08:00:43;;;;;;;3.88;3.00;;;;;;;;;;5020558;28;20576;-75
2022/10/06 08:03:10;;;;;;;4.35;2.55;;;;;;;;;;5021124;28;20050;-73
2022/10/06 08:05:38;;;;;;;5.95;2.90;;;;;;;;;;5016616;28;20069;-70
2022/10/06 08:08:05;;;;;;;6.07;2.40;;;;;;;;;;5019304;28;20053;-71
2022/10/06 08:10:31;;;;;;;7.45;2.90;;;;;;;;;;5019131;28;20046;-70
2022/10/06 08:13:00;;;;;;;6.22;2.20;;;;;;;;;;5020004;28;20124;-71
2022/10/06 08:15:26;;;;;;;5.45;3.00;;;;;;;;;;5019281;28;20050;-71
2022/10/06 08:17:53;;;;;;;4.68;2.20;;;;;;;;;;5016957;28;20424;-71
2022/10/06 08:20:19;;;;;;;5.85;2.33;;;;;;;;;;5022574;28;20085;-72
2022/10/06 08:22:46;;;;;;;5.55;2.08;;;;;;;;;;5024116;28;20049;-71
2022/10/06 08:25:13;;;;;;;4.32;2.33;;;;;;;;;;5020183;28;20096;-72
2022/10/06 08:27:42;;;;;;;4.35;1.90;;;;;;;;;;5020899;28;20069;-73
2022/10/06 08:30:11;;;;;;;7.57;2.28;;;;;;;;;;5020984;28;20054;-72
2022/10/06 08:32:41;;;;;;;4.30;2.22;;;;;;;;;;5018136;28;20190;-74
2022/10/06 08:35:09;;;;;;;6.70;2.03;;;;;;;;;;5021547;28;20057;-72
2022/10/06 08:37:35;;;;;;;4.63;1.75;;;;;;;;;;5024570;28;20085;-70
2022/10/06 08:40:03;;;;;;;3.40;1.70;;;;;;;;;;5021431;28;20504;-72
2022/10/06 08:42:38;;;;;;;2.65;1.63;;;;;;;;;;5018014;28;20555;-73
2022/10/06 08:45:16;;;;;;;6.97;2.15;;;;;;;;;;5018809;28;20068;-76
2022/10/06 08:47:52;;;;;;;3.80;1.40;;;;;;;;;;5005074;28;20096;-76
2022/10/06 08:50:21;;;;;;;3.13;1.52;;;;;;;;;;5019154;28;20245;-75
2022/10/06 08:52:53;;;;;;;4.03;1.83;;;;;;;;;;5025548;28;20570;-74
2022/10/06 08:55:22;;;;;;;4.00;1.50;;;;;;;;;;5021512;28;20057;-73
2022/10/06 08:57:57;;;;;;;3.25;1.63;;;;;;;;;;5023646;28;20115;-70
2022/10/06 09:00:24;;;;;;;5.45;1.42;;;;;;;;;;5018404;28;20132;-70
2022/10/06 09:02:50;;;;;;;6.35;1.70;;;;;;;;;;5022905;28;20414;-69
2022/10/06 09:05:24;;;;;;;3.42;1.35;;;;;;;;;;5005324;28;20045;-68
2022/10/06 09:08:12;;;;;;;4.78;1.40;;;;;;;;;;5019755;28;20088;-72
2022/10/06 09:10:43;;;;;;;4.90;1.42;;;;;;;;;;5004919;28;20053;-74
2022/10/06 09:13:23;;;;;;;6.15;1.60;;;;;;;;;;5023468;28;20072;-77
2022/10/06 09:15:54;;;;;;;4.30;1.52;;;;;;;;;;5024995;28;20100;-73
2022/10/06 09:18:29;;;;;;;4.85;1.73;;;;;;;;;;5018526;28;20119;-72
2022/10/06 09:21:18;;;;;;;4.97;1.50;;;;;;;;;;5010482;28;20053;-72
2022/10/06 09:23:55;;;;;;;4.38;1.40;;;;;;;;;;5016628;28;20050;-73
2022/10/06 09:26:29;;;;;;;5.18;1.40;;;;;;;;;;5005243;28;20053;-71
2022/10/06 09:28:56;;;;;;;5.78;2.35;;;;;;;;;;5018352;28;20054;-71
2022/10/06 09:31:25;;;;;;;4.32;1.50;;;;;;;;;;5026425;28;20049;-76
2022/10/06 09:33:54;;;;;;;7.68;1.70;;;;;;;;;;5009217;28;20049;-75
2022/10/06 09:36:20;;;;;;;5.13;1.65;;;;;;;;;;5020100;28;20054;-71
2022/10/06 09:38:52;;;;;;;4.15;1.40;;;;;;;;;;5020622;28;20431;-71
2022/10/06 09:41:37;;;;;;;4.55;1.23;;;;;;;;;;5020473;28;20448;-70
2022/10/06 09:44:05;;;;;;;4.25;1.20;;;;;;;;;;5024107;28;20045;-69
2022/10/06 09:46:40;;;;;;;3.63;1.35;;;;;;;;;;5002695;28;20077;-72
2022/10/06 09:49:23;;;;;;;4.50;1.02;;;;;;;;;;5019867;28;20136;-71
2022/10/06 09:52:00;;;;;;;;;;;;;;;;;;5021568;28;20467;-71
2022/10/06 09:54:30;;;;;;;2.45;1.10;;;;;;;;;;5021218;28;19926;-69
2022/10/06 09:56:58;;;;;;;3.75;1.17;;;;;;;;;;5018210;28;20519;-71
2022/10/06 09:59:34;;;;;;;4.32;0.98;;;;;;;;;;5026191;28;20089;-70
2022/10/06 10:02:35;;;;;;;2.13;1.10;;;;;;;;;;5005308;28;20475;-68
2022/10/06 10:05:05;;;;;;;6.00;2.42;;;;;;;;;;5005261;28;20045;-72
2022/10/06 10:07:39;;;;;;;5.10;1.60;;;;;;;;;;5012482;28;20541;-72
2022/10/06 10:10:21;;;;;;;6.55;1.42;;;;;;;;;;5007289;28;20053;-72
2022/10/06 10:12:58;;;;;;;2.38;1.05;;;;;;;;;;5025955;28;20111;-71
2022/10/06 10:15:30;;;;;;;5.90;1.85;;;;;;;;;;5020399;28;20050;-69
2022/10/06 10:18:01;;;;;;;5.05;1.40;;;;;;;;;;5018392;28;20101;-71
2022/10/06 10:20:33;;;;;;;5.38;1.25;;;;;;;;;;5019341;28;20050;-71
2022/10/06 10:23:29;;;;;;;6.78;1.23;;;;;;;;;;5020784;28;20045;-69
2022/10/06 10:26:09;;;;;;;3.55;1.00;;;;;;;;;;5017034;28;20144;-70
2022/10/06 10:29:01;;;;;;;4.88;1.20;;;;;;;;;;5021430;28;20115;-70
2022/10/06 10:31:49;;;;;;;3.63;1.00;;;;;;;;;;5031198;28;20057;-68
2022/10/06 10:34:19;;;;;;;3.80;1.08;;;;;;;;;;5029279;28;20053;-69
2022/10/06 10:36:57;;;;;;;2.17;1.00;;;;;;;;;;5019664;28;20050;-71
2022/10/06 10:39:40;;;;;;;8.13;1.40;;;;;;;;;;5014200;28;20103;-70
2022/10/06 10:42:30;;;;;;;5.68;0.90;;;;;;;;;;5021445;28;20136;-69
2022/10/06 10:45:01;;;;;;;5.45;1.13;;;;;;;;;;5017875;28;20076;-69
2022/10/06 10:47:36;;;;;;;2.53;1.00;;;;;;;;;;5018190;28;20097;-69
2022/10/06 10:50:32;;;;;;;3.08;1.02;;;;;;;;;;5003007;28;20060;-70
2022/10/06 10:53:42;;;;;;;5.78;1.00;;;;;;;;;;5020289;28;20042;-69
2022/10/06 10:56:10;;;;;;;2.75;1.08;;;;;;;;;;5018243;28;20516;-68
2022/10/06 10:58:41;;;;;;;6.22;1.15;;;;;;;;;;5017854;28;20053;-69
2022/10/06 11:01:14;;;;;;;6.88;1.33;;;;;;;;;;5011206;28;20077;-69
2022/10/06 11:03:41;;;;;;;4.95;0.90;;;;;;;;;;5020586;28;20125;-70
2022/10/06 11:06:20;;;;;;;3.45;1.30;;;;;;;;;;5019226;28;20573;-71
2022/10/06 11:08:58;;;;;;;3.50;0.93;;;;;;;;;;5019634;28;20582;-71
2022/10/06 11:11:47;;;;;;;2.75;0.90;;;;;;;;;;5017371;28;20211;-70
2022/10/06 11:14:58;;;;;;;4.32;1.02;;;;;;;;;;5017987;28;20038;-70
2022/10/06 11:17:43;;;;;;;5.13;1.75;;;;;;;;;;5019091;28;20134;-70
2022/10/06 11:20:36;;;;;;;5.30;1.08;;;;;;;;;;5019348;28;20060;-70
2022/10/06 11:23:21;;;;;;;5.72;0.88;;;;;;;;;;5020235;28;20046;-69
2022/10/06 11:25:57;;;;;;;3.90;1.00;;;;;;;;;;5017177;28;20504;-70
2022/10/06 11:28:36;;;;;;;4.72;0.65;;;;;;;;;;5018375;28;20071;-71
2022/10/06 11:31:28;;;;;;;3.90;1.23;;;;;;;;;;5021386;28;20053;-70
2022/10/06 11:33:59;;;;;;;3.90;0.93;;;;;;;;;;5019467;28;20120;-75
2022/10/06 11:36:52;;;;;;;4.68;1.30;;;;;;;;;;5023572;28;20088;-73
2022/10/06 11:39:45;;;;;;;2.42;1.27;;;;;;;;;;5020318;28;20064;-71
2022/10/06 11:42:42;;;;;;;5.53;1.73;;;;;;;;;;5020615;28;20050;-72
2022/10/06 11:45:14;;;;;;;3.67;1.00;;;;;;;;;;5025756;28;20046;-69
2022/10/06 11:48:09;;;;;;;7.28;1.35;;;;;;;;;;5021626;28;20104;-68
2022/10/06 11:50:41;;;;;;;3.15;0.90;;;;;;;;;;5021235;28;20058;-67
2022/10/06 11:53:27;;;;;;;4.97;1.10;;;;;;;;;;5016150;28;20121;-71
2022/10/06 11:56:15;;;;;;;4.65;1.15;;;;;;;;;;5020507;28;20085;-67
2022/10/06 11:58:54;;;;;;;3.72;0.90;;;;;;;;;;5018987;28;20053;-70
2022/10/06 12:01:26;;;;;;;10.48;1.58;;;;;;;;;;5023363;28;20085;-67
2022/10/06 12:04:12;;;;;;;5.55;1.15;;;;;;;;;;5018189;28;20086;-73
2022/10/06 12:06:42;;;;;;;7.10;1.55;;;;;;;;;;5018761;28;20166;-70
2022/10/06 12:09:31;;;;;;;6.70;1.30;;;;;;;;;;5023236;28;20108;-71
2022/10/06 12:12:16;;;;;;;6.50;2.13;;;;;;;;;;5018768;28;20072;-72
2022/10/06 12:15:26;;;;;;;3.90;1.50;;;;;;;;;;5015292;28;20049;-69
2022/10/06 12:18:24;;;;;;;3.15;1.08;;;;;;;;;;5016971;28;20137;-70
2022/10/06 12:21:13;;;;;;;4.95;1.00;;;;;;;;;;5025221;28;20049;-74
2022/10/06 12:23:46;;;;;;;4.32;1.13;;;;;;;;;;5023598;28;20112;-71
2022/10/06 12:26:25;;;;;;;5.38;1.10;;;;;;;;;;5022400;28;20080;-68
2022/10/06 12:29:13;;;;;;;3.63;1.38;;;;;;;;;;5019635;28;20053;-68
2022/10/06 12:31:51;;;;;;;4.68;1.35;;;;;;;;;;5017764;28;20080;-67
2022/10/06 12:34:54;;;;;;;4.78;1.20;;;;;;;;;;5021265;28;20042;-67
2022/10/06 12:37:27;;;;;;;;;;;;;;;;;;5039351;28;20046;-66
2022/10/06 12:40:31;;;;;;;4.57;1.02;;;;;;;;;;5020430;28;20013;-67
2022/10/06 12:43:16;;;;;;;3.58;1.13;;;;;;;;;;5024910;28;20080;-68
2022/10/06 12:45:49;;;;;;;6.78;1.35;;;;;;;;;;5025459;28;20085;-68
2022/10/06 12:48:21;;;;;;;1.67;0.70;;;;;;;;;;5020637;28;20081;-67
2022/10/06 12:50:50;;;;;;;5.05;1.30;;;;;;;;;;5023240;28;20053;-70
2022/10/06 12:53:27;;;;;;;3.97;1.42;;;;;;;;;;5022639;28;20531;-71
2022/10/06 12:55:55;;;;;;;3.97;1.30;;;;;;;;;;5019558;28;20072;-70
2022/10/06 12:58:31;;;;;;;2.30;0.80;;;;;;;;;;5005353;28;20136;-69
2022/10/06 13:01:07;;;;;;;6.30;1.88;;;;;;;;;;5019721;28;21103;-69
2022/10/06 13:03:36;;;;;;;4.90;1.55;;;;;;;;;;5016032;28;20050;-69
2022/10/06 13:06:05;;;;;;;5.35;1.67;;;;;;;;;;5021456;28;20046;-70
2022/10/06 13:08:35;;;;;;;3.92;0.95;;;;;;;;;;5025238;28;20045;-70
2022/10/06 13:11:30;;;;;;;7.43;1.50;;;;;;;;;;5022476;28;20072;-66
2022/10/06 13:14:12;;;;;;;4.30;1.13;;;;;;;;;;5022538;28;20085;-67
2022/10/06 13:16:49;;;;;;;6.30;1.42;;;;;;;;;;5021467;28;20558;-67
2022/10/06 13:19:24;;;;;;;5.97;1.52;;;;;;;;;;5023464;28;20061;-66
2022/10/06 13:21:51;;;;;;;2.20;0.88;;;;;;;;;;5003393;28;20054;-68
2022/10/06 13:24:20;;;;;;;6.45;1.35;;;;;;;;;;5003923;28;20493;-70
2022/10/06 13:26:47;;;;;;;4.45;1.00;;;;;;;;;;5020786;28;20180;-70
2022/10/06 13:29:20;;;;;;;5.20;0.90;;;;;;;;;;5023713;28;20045;-70
2022/10/06 13:31:49;;;;;;;4.10;0.77;;;;;;;;;;5019051;28;20050;-69
2022/10/06 13:34:42;;;;;;;3.97;0.98;;;;;;;;;;5018082;28;20055;-68
2022/10/06 13:37:13;;;;;;;3.05;1.30;;;;;;;;;;5020330;28;20049;-67
2022/10/06 13:39:40;;;;;;;5.93;1.17;;;;;;;;;;5019263;28;20509;-68
2022/10/06 13:42:09;;;;;;;3.92;1.35;;;;;;;;;;5023757;28;20053;-70
2022/10/06 13:44:56;;;;;;;5.78;1.02;;;;;;;;;;5020162;28;20061;-71
2022/10/06 13:47:24;;;;;;;4.07;1.00;;;;;;;;;;5020405;28;20057;-71
2022/10/06 13:50:00;;;;;;;6.30;1.00;;;;;;;;;;5020070;28;20092;-71
2022/10/06 13:52:38;;;;;;;4.03;1.02;;;;;;;;;;5022898;28;20050;-71
2022/10/06 13:55:14;;;;;;;4.82;0.93;;;;;;;;;;5018442;28;20046;-70
2022/10/06 13:57:47;;;;;;;3.15;0.95;;;;;;;;;;5005360;28;20060;-69
2022/10/06 14:00:45;;;;;;;3.60;0.95;;;;;;;;;;5020077;28;20041;-68
2022/10/06 14:03:27;;;;;;;4.38;1.00;;;;;;;;;;5021397;28;20092;-68
2022/10/06 14:06:05;;;;;;;4.72;1.00;;;;;;;;;;5020893;28;20058;-68
2022/10/06 14:08:32;;;;;;;2.75;0.80;;;;;;;;;;5019145;28;20050;-67
2022/10/06 14:11:07;;;;;;;3.10;1.00;;;;;;;;;;5023791;28;20546;-69
2022/10/06 14:13:36;;;;;;;5.70;1.05;;;;;;;;;;5020257;28;20061;-69
2022/10/06 14:16:05;;;;;;;4.43;0.90;;;;;;;;;;5020936;28;20057;-67
2022/10/06 14:18:45;;;;;;;4.20;1.15;;;;;;;;;;5029831;23;20049;-68
2022/10/06 14:21:18;;;;;;;2.20;0.80;;;;;;;;;;5021746;28;20048;-67
2022/10/06 14:23:49;;;;;;;4.90;0.93;;;;;;;;;;5024847;28;20416;-67
2022/10/06 14:26:18;;;;;;;3.60;1.00;;;;;;;;;;5023011;28;20103;-67
2022/10/06 14:28:47;;;;;;;4.30;1.23;;;;;;;;;;5003405;28;20097;-67
2022/10/06 14:31:14;;;;;;;4.18;1.27;;;;;;;;;;5000066;28;20054;-67
2022/10/06 14:33:43;;;;;;;4.22;1.13;;;;;;;;;;4998946;28;20054;-67
2022/10/06 14:36:29;;;;;;;3.40;1.10;;;;;;;;;;4999730;28;20058;-67
2022/10/06 14:38:57;;;;;;;5.95;1.02;;;;;;;;;;4999488;28;20050;-67
2022/10/06 14:41:28;;;;;;;4.15;1.00;;;;;;;;;;5000391;28;20049;-67
2022/10/06 14:43:57;;;;;;;3.65;1.50;;;;;;;;;;4999938;28;20054;-67
2022/10/06 14:46:24;;;;;;;4.72;1.48;;;;;;;;;;4998975;28;20061;-67
2022/10/06 14:48:51;;;;;;;6.15;1.38;;;;;;;;;;4999443;28;20401;-67
2022/10/06 14:51:18;;;;;;;1.90;0.77;;;;;;;;;;4999544;28;20049;-67
2022/10/06 14:53:56;;;;;;;4.00;1.15;;;;;;;;;;4998744;28;20054;-67
2022/10/06 14:56:25;;;;;;;4.15;1.13;;;;;;;;;;5000285;28;20054;-67
2022/10/06 14:58:52;;;;;;;2.15;0.80;;;;;;;;;;4998012;28;20054;-67
2022/10/06 15:01:23;;;;;;;2.33;0.80;;;;;;;;;;4999805;28;20077;-69
2022/10/06 15:03:55;;;;;;;5.97;1.67;;;;;;;;;;5003069;28;20047;-69
2022/10/06 15:09:07;;;;;;;2.78;0.90;;;;;;;;;;4994179;28;20045;-70
2022/10/06 15:11:34;;;;;;;3.63;1.00;;;;;;;;;;4998597;28;20050;-70
2022/10/06 15:14:02;;;;;;;4.75;1.10;;;;;;;;;;5001319;28;20125;-71
2022/10/06 15:16:32;;;;;;;4.80;1.25;;;;;;;;;;4999356;28;20069;-70
2022/10/06 15:18:59;;;;;;;2.17;1.10;;;;;;;;;;5002458;28;20528;-69
2022/10/06 15:21:26;;;;;;;5.47;1.38;;;;;;;;;;5016666;28;20042;-77
2022/10/06 15:23:58;;;;;;;3.72;1.00;;;;;;;;;;5006770;28;20047;-73